AAY225 KPNS-KMCO
Flight info
| Callsign | AAY225 |
|---|---|
| Flight time | 1h 11m |
| Altitude | 35000 |
| Route | CEW DEFUN GRNCH5 |
| Aircraft | A320/M-SDE3FGHIRWY/LB1 |
Departure
| Time | 2026-04-21 19:27 |
|---|---|
| Airport | Pensacola International Airport (KPNS) |
Arrival
| Time | 2026-04-21 20:38 |
|---|---|
| Airport | Orlando International Airport (KMCO) |
| Time | Latitude | Longitude | Altitude | Speed | Heading |
|---|---|---|---|---|---|
| 2026-04-21 19:13 | 30.47522 | -87.19354 | 118 ft | 0 kts | 27° |
| 2026-04-21 19:16 | 30.47519 | -87.19356 | 125 ft | 3 kts | 28° |
| 2026-04-21 19:17 | 30.47482 | -87.19385 | 127 ft | 4 kts | 54° |
| 2026-04-21 19:17 | 30.47471 | -87.19412 | 122 ft | 3 kts | 82° |
| 2026-04-21 19:17 | 30.47470 | -87.19422 | 122 ft | 0 kts | 84° |
| 2026-04-21 19:20 | 30.47454 | -87.19341 | 124 ft | 10 kts | 116° |
| 2026-04-21 19:21 | 30.47411 | -87.19266 | 124 ft | 12 kts | 118° |
| 2026-04-21 19:21 | 30.47418 | -87.19169 | 123 ft | 12 kts | 70° |
| 2026-04-21 19:21 | 30.47432 | -87.19115 | 124 ft | 0 kts | 79° |
| 2026-04-21 19:23 | 30.47432 | -87.19098 | 123 ft | 9 kts | 94° |
| 2026-04-21 19:23 | 30.47456 | -87.19016 | 124 ft | 12 kts | 27° |
| 2026-04-21 19:23 | 30.47530 | -87.19025 | 123 ft | 10 kts | 347° |
| 2026-04-21 19:24 | 30.47593 | -87.19041 | 123 ft | 8 kts | 348° |
| 2026-04-21 19:24 | 30.47648 | -87.19055 | 123 ft | 10 kts | 347° |
| 2026-04-21 19:24 | 30.47750 | -87.19081 | 124 ft | 20 kts | 347° |
| 2026-04-21 19:24 | 30.47875 | -87.19115 | 124 ft | 18 kts | 347° |
| 2026-04-21 19:25 | 30.47991 | -87.19146 | 124 ft | 16 kts | 347° |
| 2026-04-21 19:25 | 30.48096 | -87.19174 | 124 ft | 15 kts | 347° |
| 2026-04-21 19:25 | 30.48189 | -87.19198 | 124 ft | 10 kts | 347° |
| 2026-04-21 19:25 | 30.48247 | -87.19190 | 130 ft | 8 kts | 37° |
| 2026-04-21 19:26 | 30.48266 | -87.19142 | 131 ft | 6 kts | 71° |
| 2026-04-21 19:26 | 30.48251 | -87.19062 | 133 ft | 17 kts | 137° |
| 2026-04-21 19:26 | 30.48096 | -87.19011 | 129 ft | 39 kts | 166° |
| 2026-04-21 19:26 | 30.47587 | -87.18876 | 126 ft | 108 kts | 167° |
| 2026-04-21 19:27 | 30.46690 | -87.18649 | 287 ft | 142 kts | 166° |
| 2026-04-21 19:27 | 30.45731 | -87.18469 | 926 ft | 135 kts | 171° |
| 2026-04-21 19:27 | 30.44804 | -87.18303 | 1423 ft | 142 kts | 171° |
| 2026-04-21 19:27 | 30.43662 | -87.18172 | 1546 ft | 190 kts | 175° |
| 2026-04-21 19:28 | 30.42229 | -87.18117 | 2254 ft | 219 kts | 176° |
| 2026-04-21 19:28 | 30.40700 | -87.17625 | 2991 ft | 242 kts | 147° |
| 2026-04-21 19:28 | 30.39598 | -87.16118 | 3960 ft | 254 kts | 111° |
| 2026-04-21 19:28 | 30.39454 | -87.14093 | 5182 ft | 259 kts | 76° |
| 2026-04-21 19:29 | 30.40351 | -87.12283 | 6441 ft | 266 kts | 48° |
| 2026-04-21 19:29 | 30.41680 | -87.10795 | 7765 ft | 268 kts | 44° |
| 2026-04-21 19:29 | 30.43089 | -87.09346 | 8966 ft | 273 kts | 42° |
| 2026-04-21 19:29 | 30.44542 | -87.07886 | 10112 ft | 280 kts | 41° |
| 2026-04-21 19:30 | 30.46067 | -87.06352 | 10814 ft | 303 kts | 41° |
| 2026-04-21 19:30 | 30.47717 | -87.04672 | 11344 ft | 328 kts | 42° |
| 2026-04-21 19:30 | 30.49482 | -87.02848 | 11870 ft | 349 kts | 43° |
| 2026-04-21 19:30 | 30.51312 | -87.00933 | 12689 ft | 359 kts | 42° |
| 2026-04-21 19:31 | 30.53186 | -86.98963 | 13599 ft | 367 kts | 43° |
| 2026-04-21 19:31 | 30.55093 | -86.96956 | 14477 ft | 374 kts | 43° |
| 2026-04-21 19:31 | 30.57040 | -86.94907 | 15298 ft | 381 kts | 42° |
| 2026-04-21 19:31 | 30.59017 | -86.92826 | 16110 ft | 387 kts | 42° |
| 2026-04-21 19:32 | 30.61029 | -86.90713 | 16875 ft | 393 kts | 41° |
| 2026-04-21 19:32 | 30.63070 | -86.88568 | 17637 ft | 399 kts | 40° |
| 2026-04-21 19:32 | 30.65137 | -86.86392 | 18420 ft | 403 kts | 41° |
| 2026-04-21 19:32 | 30.67228 | -86.84187 | 19087 ft | 408 kts | 41° |
| 2026-04-21 19:33 | 30.68653 | -86.82685 | 19519 ft | 411 kts | 41° |
| 2026-04-21 19:33 | 30.71478 | -86.79704 | 20342 ft | 417 kts | 41° |
| 2026-04-21 19:33 | 30.73635 | -86.77421 | 20939 ft | 422 kts | 40° |
| 2026-04-21 19:33 | 30.75812 | -86.75115 | 21495 ft | 426 kts | 40° |
| 2026-04-21 19:34 | 30.78001 | -86.72765 | 22010 ft | 431 kts | 44° |
| 2026-04-21 19:34 | 30.79913 | -86.70050 | 22494 ft | 438 kts | 56° |
| 2026-04-21 19:34 | 30.81342 | -86.66907 | 22953 ft | 443 kts | 68° |
| 2026-04-21 19:34 | 30.82213 | -86.63457 | 23387 ft | 448 kts | 80° |
| 2026-04-21 19:35 | 30.82470 | -86.59842 | 23803 ft | 451 kts | 91° |
| 2026-04-21 19:35 | 30.82316 | -86.52487 | 24470 ft | 459 kts | 91° |
| 2026-04-21 19:35 | 30.82234 | -86.48764 | 24788 ft | 462 kts | 91° |
| 2026-04-21 19:36 | 30.82151 | -86.45017 | 25105 ft | 465 kts | 91° |
| 2026-04-21 19:36 | 30.82070 | -86.41243 | 25414 ft | 468 kts | 91° |
| 2026-04-21 19:36 | 30.81988 | -86.37450 | 25722 ft | 471 kts | 91° |
| 2026-04-21 19:36 | 30.81902 | -86.33626 | 26021 ft | 474 kts | 91° |
| 2026-04-21 19:37 | 30.81814 | -86.29786 | 26333 ft | 477 kts | 91° |
| 2026-04-21 19:37 | 30.81724 | -86.25920 | 26626 ft | 480 kts | 91° |
| 2026-04-21 19:37 | 30.81633 | -86.22027 | 26917 ft | 482 kts | 91° |
| 2026-04-21 19:37 | 30.81540 | -86.18169 | 27196 ft | 485 kts | 91° |
| 2026-04-21 19:38 | 30.81447 | -86.14237 | 27477 ft | 488 kts | 91° |
| 2026-04-21 19:38 | 30.81403 | -86.10286 | 27759 ft | 490 kts | 89° |
| 2026-04-21 19:38 | 30.81482 | -86.06317 | 28034 ft | 492 kts | 87° |
| 2026-04-21 19:38 | 30.81652 | -86.02327 | 28304 ft | 495 kts | 86° |
| 2026-04-21 19:39 | 30.81865 | -85.98329 | 28564 ft | 497 kts | 85° |
| 2026-04-21 19:39 | 30.82080 | -85.94306 | 28813 ft | 499 kts | 86° |
| 2026-04-21 19:39 | 30.82268 | -85.90267 | 29068 ft | 501 kts | 86° |
| 2026-04-21 19:39 | 30.82425 | -85.86208 | 29287 ft | 503 kts | 87° |
| 2026-04-21 19:40 | 30.82558 | -85.82129 | 29512 ft | 506 kts | 87° |
| 2026-04-21 19:40 | 30.82680 | -85.78032 | 29737 ft | 508 kts | 87° |
| 2026-04-21 19:40 | 30.82801 | -85.73929 | 30043 ft | 508 kts | 87° |
| 2026-04-21 19:40 | 30.82927 | -85.69822 | 30359 ft | 507 kts | 87° |
| 2026-04-21 19:41 | 30.83059 | -85.65721 | 30644 ft | 507 kts | 87° |
| 2026-04-21 19:41 | 30.83191 | -85.61625 | 30921 ft | 506 kts | 87° |
| 2026-04-21 19:41 | 30.83324 | -85.57536 | 31211 ft | 505 kts | 86° |
| 2026-04-21 19:41 | 30.83456 | -85.53454 | 31506 ft | 504 kts | 86° |
| 2026-04-21 19:42 | 30.83587 | -85.49383 | 31793 ft | 503 kts | 86° |
| 2026-04-21 19:42 | 30.83713 | -85.45314 | 32079 ft | 502 kts | 86° |
| 2026-04-21 19:42 | 30.83834 | -85.41254 | 32388 ft | 501 kts | 86° |
| 2026-04-21 19:42 | 30.83953 | -85.37211 | 32714 ft | 499 kts | 86° |
| 2026-04-21 19:43 | 30.84072 | -85.33184 | 33018 ft | 498 kts | 86° |
| 2026-04-21 19:43 | 30.84191 | -85.29165 | 33331 ft | 497 kts | 86° |
| 2026-04-21 19:43 | 30.84312 | -85.25153 | 33623 ft | 496 kts | 86° |
| 2026-04-21 19:43 | 30.84433 | -85.21145 | 33916 ft | 495 kts | 86° |
| 2026-04-21 19:44 | 30.84554 | -85.17148 | 34209 ft | 494 kts | 85° |
| 2026-04-21 19:44 | 30.84673 | -85.13159 | 34466 ft | 493 kts | 86° |
| 2026-04-21 19:44 | 30.84790 | -85.09168 | 34694 ft | 493 kts | 86° |
| 2026-04-21 19:44 | 30.84901 | -85.05178 | 34904 ft | 494 kts | 86° |
| 2026-04-21 19:45 | 30.85008 | -85.01174 | 35054 ft | 496 kts | 86° |
| 2026-04-21 19:45 | 30.85114 | -84.97157 | 35197 ft | 498 kts | 86° |
| 2026-04-21 19:45 | 30.85223 | -84.93118 | 35282 ft | 501 kts | 86° |
| 2026-04-21 19:46 | 30.85451 | -84.84942 | 35295 ft | 510 kts | 86° |
| 2026-04-21 19:46 | 30.85675 | -84.76638 | 35292 ft | 517 kts | 86° |
| 2026-04-21 19:47 | 30.85884 | -84.68239 | 35291 ft | 522 kts | 86° |
| 2026-04-21 19:47 | 30.86085 | -84.59764 | 35294 ft | 526 kts | 85° |
| 2026-04-21 19:48 | 30.86287 | -84.51234 | 35295 ft | 529 kts | 85° |
| 2026-04-21 19:48 | 30.86488 | -84.42658 | 35294 ft | 531 kts | 86° |
| 2026-04-21 19:49 | 30.86682 | -84.34042 | 35296 ft | 534 kts | 86° |
| 2026-04-21 19:49 | 30.86877 | -84.25388 | 35298 ft | 536 kts | 85° |
| 2026-04-21 19:50 | 30.87034 | -84.18165 | 35307 ft | 538 kts | 85° |
| 2026-04-21 19:50 | 30.87237 | -84.07999 | 35685 ft | 530 kts | 86° |
| 2026-04-21 19:50 | 30.87313 | -84.03781 | 36458 ft | 512 kts | 86° |
| 2026-04-21 19:51 | 30.87378 | -83.99734 | 37588 ft | 487 kts | 86° |
| 2026-04-21 19:51 | 30.87432 | -83.95968 | 39018 ft | 455 kts | 87° |
| 2026-04-21 19:51 | 30.87474 | -83.92453 | 40348 ft | 413 kts | 87° |
| 2026-04-21 19:51 | 30.87504 | -83.89242 | 41319 ft | 387 kts | 87° |
| 2026-04-21 19:52 | 30.87533 | -83.86065 | 40824 ft | 404 kts | 87° |
| 2026-04-21 19:52 | 30.87573 | -83.82625 | 39553 ft | 446 kts | 87° |
| 2026-04-21 19:52 | 30.87623 | -83.78934 | 39234 ft | 455 kts | 87° |
| 2026-04-21 19:52 | 30.87668 | -83.75389 | 40221 ft | 418 kts | 87° |
| 2026-04-21 19:53 | 30.87723 | -83.72043 | 40470 ft | 419 kts | 86° |
| 2026-04-21 19:53 | 30.87859 | -83.68568 | 39854 ft | 436 kts | 84° |
| 2026-04-21 19:53 | 30.88067 | -83.65040 | 39273 ft | 441 kts | 83° |
| 2026-04-21 19:53 | 30.88272 | -83.61407 | 37973 ft | 460 kts | 85° |
| 2026-04-21 19:54 | 30.88380 | -83.57590 | 36566 ft | 482 kts | 86° |
| 2026-04-21 19:54 | 30.88405 | -83.53665 | 35844 ft | 486 kts | 86° |
| 2026-04-21 19:54 | 30.88395 | -83.49759 | 35546 ft | 478 kts | 86° |
| 2026-04-21 19:54 | 30.88387 | -83.45930 | 35340 ft | 468 kts | 85° |
| 2026-04-21 19:55 | 30.88402 | -83.42196 | 35290 ft | 455 kts | 85° |
| 2026-04-21 19:55 | 30.88506 | -83.34733 | 35312 ft | 469 kts | 84° |
| 2026-04-21 19:56 | 30.88657 | -83.27031 | 35312 ft | 483 kts | 84° |
| 2026-04-21 19:56 | 30.88780 | -83.19802 | 35312 ft | 495 kts | 85° |
| 2026-04-21 19:57 | 30.88885 | -83.11724 | 35312 ft | 505 kts | 85° |
| 2026-04-21 19:57 | 30.88976 | -83.03538 | 35302 ft | 506 kts | 85° |
| 2026-04-21 19:58 | 30.88973 | -82.95333 | 35303 ft | 509 kts | 92° |
| 2026-04-21 19:58 | 30.88374 | -82.91257 | 35310 ft | 514 kts | 103° |
| 2026-04-21 19:58 | 30.87167 | -82.87336 | 35329 ft | 516 kts | 115° |
| 2026-04-21 19:58 | 30.85394 | -82.83709 | 35339 ft | 516 kts | 126° |
| 2026-04-21 19:59 | 30.83119 | -82.80493 | 35336 ft | 514 kts | 137° |
| 2026-04-21 19:59 | 30.77622 | -82.75239 | 35340 ft | 512 kts | 145° |
| 2026-04-21 20:00 | 30.71988 | -82.70168 | 35352 ft | 512 kts | 145° |
| 2026-04-21 20:00 | 30.66351 | -82.65089 | 35359 ft | 513 kts | 144° |
| 2026-04-21 20:01 | 30.60715 | -82.60009 | 35362 ft | 513 kts | 144° |
| 2026-04-21 20:01 | 30.55112 | -82.54973 | 35375 ft | 513 kts | 145° |
| 2026-04-21 20:02 | 30.50380 | -82.50736 | 35394 ft | 513 kts | 145° |
| 2026-04-21 20:02 | 30.43816 | -82.44856 | 35398 ft | 513 kts | 145° |
| 2026-04-21 20:03 | 30.38276 | -82.39888 | 35415 ft | 488 kts | 145° |
| 2026-04-21 20:03 | 30.35636 | -82.37523 | 35400 ft | 472 kts | 145° |
| 2026-04-21 20:03 | 30.33068 | -82.35228 | 35403 ft | 462 kts | 145° |
| 2026-04-21 20:04 | 30.28006 | -82.30731 | 35392 ft | 457 kts | 145° |
| 2026-04-21 20:04 | 30.22884 | -82.26389 | 35383 ft | 454 kts | 153° |
| 2026-04-21 20:05 | 30.17213 | -82.23382 | 35375 ft | 445 kts | 169° |
| 2026-04-21 20:05 | 30.11234 | -82.21929 | 35359 ft | 437 kts | 177° |
| 2026-04-21 20:06 | 30.05270 | -82.20764 | 35349 ft | 438 kts | 177° |
| 2026-04-21 20:06 | 29.99268 | -82.19572 | 35343 ft | 438 kts | 176° |
| 2026-04-21 20:07 | 29.93268 | -82.18377 | 35318 ft | 438 kts | 176° |
| 2026-04-21 20:07 | 29.88250 | -82.17384 | 35311 ft | 436 kts | 176° |
| 2026-04-21 20:08 | 29.82319 | -82.16213 | 35299 ft | 435 kts | 176° |
| 2026-04-21 20:08 | 29.76355 | -82.15015 | 35297 ft | 435 kts | 176° |
| 2026-04-21 20:09 | 29.70395 | -82.13819 | 35294 ft | 435 kts | 176° |
| 2026-04-21 20:09 | 29.64391 | -82.12633 | 34399 ft | 449 kts | 176° |
| 2026-04-21 20:09 | 29.61247 | -82.12021 | 33126 ft | 466 kts | 175° |
| 2026-04-21 20:10 | 29.58002 | -82.11389 | 31835 ft | 481 kts | 175° |
| 2026-04-21 20:10 | 29.54673 | -82.10735 | 30576 ft | 487 kts | 174° |
| 2026-04-21 20:10 | 29.51341 | -82.10071 | 29201 ft | 486 kts | 174° |
| 2026-04-21 20:10 | 29.48020 | -82.09402 | 27846 ft | 483 kts | 174° |
| 2026-04-21 20:11 | 29.44725 | -82.08737 | 26568 ft | 479 kts | 174° |
| 2026-04-21 20:11 | 29.41463 | -82.08079 | 25355 ft | 474 kts | 174° |
| 2026-04-21 20:11 | 29.38238 | -82.07436 | 24406 ft | 464 kts | 174° |
| 2026-04-21 20:11 | 29.35129 | -82.06819 | 23852 ft | 444 kts | 174° |
| 2026-04-21 20:12 | 29.32146 | -82.06144 | 23218 ft | 430 kts | 168° |
| 2026-04-21 20:12 | 29.29365 | -82.05031 | 22670 ft | 418 kts | 159° |
| 2026-04-21 20:12 | 29.26822 | -82.03520 | 22143 ft | 406 kts | 154° |
| 2026-04-21 20:12 | 29.24394 | -82.01981 | 21630 ft | 393 kts | 154° |
| 2026-04-21 20:13 | 29.22041 | -82.00490 | 21126 ft | 381 kts | 154° |
| 2026-04-21 20:13 | 29.19759 | -81.99048 | 20651 ft | 369 kts | 154° |
| 2026-04-21 20:13 | 29.17536 | -81.97654 | 20164 ft | 359 kts | 154° |
| 2026-04-21 20:13 | 29.15402 | -81.96318 | 19719 ft | 350 kts | 153° |
| 2026-04-21 20:14 | 29.13295 | -81.94998 | 19272 ft | 341 kts | 153° |
| 2026-04-21 20:14 | 29.11212 | -81.93694 | 18826 ft | 333 kts | 153° |
| 2026-04-21 20:14 | 29.09224 | -81.92450 | 18387 ft | 329 kts | 153° |
| 2026-04-21 20:14 | 29.07251 | -81.91111 | 17936 ft | 331 kts | 146° |
| 2026-04-21 20:15 | 29.05424 | -81.89438 | 17191 ft | 343 kts | 137° |
| 2026-04-21 20:15 | 29.03687 | -81.87552 | 16719 ft | 345 kts | 136° |
| 2026-04-21 20:15 | 29.01941 | -81.85664 | 16272 ft | 346 kts | 136° |
| 2026-04-21 20:15 | 29.00203 | -81.83795 | 16089 ft | 338 kts | 136° |
| 2026-04-21 20:16 | 28.98521 | -81.81974 | 15973 ft | 328 kts | 134° |
| 2026-04-21 20:16 | 28.97056 | -81.80000 | 15672 ft | 326 kts | 127° |
| 2026-04-21 20:16 | 28.95694 | -81.77980 | 15275 ft | 328 kts | 127° |
| 2026-04-21 20:16 | 28.94310 | -81.75920 | 14884 ft | 329 kts | 126° |
| 2026-04-21 20:17 | 28.92915 | -81.73844 | 14496 ft | 330 kts | 126° |
| 2026-04-21 20:17 | 28.91514 | -81.71760 | 14105 ft | 331 kts | 126° |
| 2026-04-21 20:17 | 28.90112 | -81.69677 | 13679 ft | 331 kts | 126° |
| 2026-04-21 20:17 | 28.88712 | -81.67601 | 13290 ft | 330 kts | 126° |
| 2026-04-21 20:18 | 28.87312 | -81.65529 | 12903 ft | 329 kts | 126° |
| 2026-04-21 20:18 | 28.85922 | -81.63469 | 12519 ft | 327 kts | 126° |
| 2026-04-21 20:18 | 28.84535 | -81.61419 | 12132 ft | 326 kts | 126° |
| 2026-04-21 20:18 | 28.83169 | -81.59407 | 12014 ft | 315 kts | 125° |
| 2026-04-21 20:19 | 28.81848 | -81.57460 | 11876 ft | 305 kts | 126° |
| 2026-04-21 20:19 | 28.80558 | -81.55584 | 11763 ft | 297 kts | 129° |
| 2026-04-21 20:19 | 28.79062 | -81.54006 | 11613 ft | 291 kts | 143° |
| 2026-04-21 20:19 | 28.77313 | -81.52833 | 11246 ft | 293 kts | 152° |
| 2026-04-21 20:20 | 28.75508 | -81.51761 | 10904 ft | 292 kts | 151° |
| 2026-04-21 20:20 | 28.73709 | -81.50684 | 10571 ft | 292 kts | 150° |
| 2026-04-21 20:20 | 28.71916 | -81.49609 | 10234 ft | 291 kts | 150° |
| 2026-04-21 20:20 | 28.70134 | -81.48537 | 9875 ft | 289 kts | 150° |
| 2026-04-21 20:21 | 28.68366 | -81.47472 | 9537 ft | 286 kts | 150° |
| 2026-04-21 20:21 | 28.66614 | -81.46420 | 9203 ft | 283 kts | 150° |
| 2026-04-21 20:21 | 28.64876 | -81.45380 | 8884 ft | 280 kts | 149° |
| 2026-04-21 20:21 | 28.63159 | -81.44356 | 8564 ft | 277 kts | 151° |
| 2026-04-21 20:22 | 28.61466 | -81.43360 | 8376 ft | 269 kts | 154° |
| 2026-04-21 20:22 | 28.57959 | -81.42507 | 8160 ft | 251 kts | 171° |
| 2026-04-21 20:22 | 28.56215 | -81.42420 | 8004 ft | 252 kts | 176° |
| 2026-04-21 20:23 | 28.54471 | -81.42426 | 7739 ft | 249 kts | 178° |
| 2026-04-21 20:23 | 28.52749 | -81.42429 | 7502 ft | 246 kts | 177° |
| 2026-04-21 20:23 | 28.51045 | -81.42429 | 7265 ft | 245 kts | 175° |
| 2026-04-21 20:23 | 28.49344 | -81.42423 | 7021 ft | 244 kts | 175° |
| 2026-04-21 20:24 | 28.47642 | -81.42416 | 6780 ft | 245 kts | 176° |
| 2026-04-21 20:24 | 28.45949 | -81.42414 | 6540 ft | 242 kts | 175° |
| 2026-04-21 20:24 | 28.44270 | -81.42415 | 6297 ft | 241 kts | 176° |
| 2026-04-21 20:24 | 28.42601 | -81.42416 | 6059 ft | 239 kts | 174° |
| 2026-04-21 20:25 | 28.40950 | -81.42419 | 5831 ft | 237 kts | 176° |
| 2026-04-21 20:25 | 28.39311 | -81.42422 | 5598 ft | 235 kts | 175° |
| 2026-04-21 20:25 | 28.37681 | -81.42424 | 5362 ft | 233 kts | 175° |
| 2026-04-21 20:25 | 28.36063 | -81.42420 | 5136 ft | 232 kts | 175° |
| 2026-04-21 20:26 | 28.34457 | -81.42418 | 4987 ft | 231 kts | 174° |
| 2026-04-21 20:26 | 28.32849 | -81.42398 | 4954 ft | 231 kts | 173° |
| 2026-04-21 20:26 | 28.31242 | -81.42366 | 4952 ft | 232 kts | 173° |
| 2026-04-21 20:26 | 28.29624 | -81.42332 | 4957 ft | 232 kts | 173° |
| 2026-04-21 20:27 | 28.28018 | -81.42297 | 4954 ft | 231 kts | 174° |
| 2026-04-21 20:27 | 28.26418 | -81.42264 | 4955 ft | 229 kts | 173° |
| 2026-04-21 20:27 | 28.24819 | -81.42229 | 4954 ft | 231 kts | 174° |
| 2026-04-21 20:27 | 28.23215 | -81.42200 | 4955 ft | 230 kts | 173° |
| 2026-04-21 20:28 | 28.21614 | -81.42172 | 4955 ft | 231 kts | 174° |
| 2026-04-21 20:28 | 28.20013 | -81.42141 | 4953 ft | 231 kts | 175° |
| 2026-04-21 20:28 | 28.18430 | -81.42108 | 4952 ft | 230 kts | 172° |
| 2026-04-21 20:28 | 28.16932 | -81.41671 | 4957 ft | 218 kts | 142° |
| 2026-04-21 20:29 | 28.15888 | -81.40546 | 4955 ft | 200 kts | 125° |
| 2026-04-21 20:29 | 28.15137 | -81.39297 | 4959 ft | 185 kts | 110° |
| 2026-04-21 20:29 | 28.14744 | -81.37986 | 4969 ft | 167 kts | 104° |
| 2026-04-21 20:29 | 28.14504 | -81.36770 | 4944 ft | 149 kts | 95° |
| 2026-04-21 20:30 | 28.14404 | -81.35634 | 4947 ft | 144 kts | 93° |
| 2026-04-21 20:30 | 28.14322 | -81.34514 | 4954 ft | 142 kts | 93° |
| 2026-04-21 20:30 | 28.14298 | -81.33398 | 4952 ft | 143 kts | 85° |
| 2026-04-21 20:30 | 28.14390 | -81.32276 | 4948 ft | 142 kts | 83° |
| 2026-04-21 20:31 | 28.14505 | -81.31165 | 4952 ft | 142 kts | 82° |
| 2026-04-21 20:31 | 28.14897 | -81.30153 | 4954 ft | 145 kts | 48° |
| 2026-04-21 20:31 | 28.15804 | -81.29659 | 4953 ft | 149 kts | 14° |
| 2026-04-21 20:31 | 28.16833 | -81.29518 | 4952 ft | 149 kts | 13° |
| 2026-04-21 20:32 | 28.17867 | -81.29371 | 4953 ft | 150 kts | 14° |
| 2026-04-21 20:32 | 28.18896 | -81.29226 | 4951 ft | 149 kts | 15° |
| 2026-04-21 20:32 | 28.19947 | -81.29073 | 4634 ft | 158 kts | 13° |
| 2026-04-21 20:32 | 28.21055 | -81.28913 | 4235 ft | 162 kts | 14° |
| 2026-04-21 20:33 | 28.22166 | -81.28756 | 3933 ft | 160 kts | 13° |
| 2026-04-21 20:33 | 28.23258 | -81.28603 | 3691 ft | 156 kts | 15° |
| 2026-04-21 20:33 | 28.24327 | -81.28452 | 3475 ft | 153 kts | 14° |
| 2026-04-21 20:33 | 28.25387 | -81.28294 | 3268 ft | 155 kts | 15° |
| 2026-04-21 20:34 | 28.26462 | -81.28174 | 3056 ft | 156 kts | 11° |
| 2026-04-21 20:34 | 28.27536 | -81.28129 | 2856 ft | 155 kts | 9° |
| 2026-04-21 20:34 | 28.28618 | -81.28115 | 2650 ft | 155 kts | 8° |
| 2026-04-21 20:34 | 28.29692 | -81.28116 | 2439 ft | 153 kts | 7° |
| 2026-04-21 20:35 | 28.30744 | -81.28124 | 2236 ft | 149 kts | 9° |
| 2026-04-21 20:35 | 28.31766 | -81.28133 | 2044 ft | 145 kts | 5° |
| 2026-04-21 20:35 | 28.32772 | -81.28142 | 1844 ft | 145 kts | 9° |
| 2026-04-21 20:35 | 28.33794 | -81.28150 | 1650 ft | 148 kts | 8° |
| 2026-04-21 20:36 | 28.34806 | -81.28161 | 1454 ft | 146 kts | 11° |
| 2026-04-21 20:36 | 28.35811 | -81.28172 | 1296 ft | 143 kts | 6° |
| 2026-04-21 20:36 | 28.36802 | -81.28182 | 1100 ft | 144 kts | 8° |
| 2026-04-21 20:36 | 28.37820 | -81.28190 | 935 ft | 148 kts | 10° |
| 2026-04-21 20:37 | 28.38840 | -81.28202 | 742 ft | 146 kts | 9° |
| 2026-04-21 20:37 | 28.39827 | -81.28213 | 538 ft | 139 kts | 4° |
| 2026-04-21 20:37 | 28.40772 | -81.28222 | 388 ft | 136 kts | 7° |
| 2026-04-21 20:37 | 28.41712 | -81.28241 | 160 ft | 131 kts | 7° |
| 2026-04-21 20:38 | 28.42593 | -81.28244 | 101 ft | 116 kts | 5° |
| 2026-04-21 20:38 | 28.43171 | -81.28247 | 94 ft | 48 kts | 360° |
| 2026-04-21 20:38 | 28.43398 | -81.28248 | 95 ft | 28 kts | 356° |
| 2026-04-21 20:38 | 28.43520 | -81.28315 | 96 ft | 0 kts | 318° |
| 2026-04-21 20:39 | 28.43571 | -81.28363 | 97 ft | 23 kts | 333° |
| 2026-04-21 20:39 | 28.43748 | -81.28376 | 96 ft | 23 kts | 360° |
| 2026-04-21 20:39 | 28.43872 | -81.28422 | 97 ft | 18 kts | 285° |
| 2026-04-21 20:40 | 28.43873 | -81.28608 | 101 ft | 29 kts | 270° |
| 2026-04-21 20:40 | 28.43873 | -81.28748 | 107 ft | 14 kts | 269° |
| 2026-04-21 20:40 | 28.43870 | -81.28924 | 108 ft | 28 kts | 270° |
| 2026-04-21 20:40 | 28.43869 | -81.29110 | 105 ft | 20 kts | 269° |
| 2026-04-21 20:41 | 28.43862 | -81.29236 | 96 ft | 13 kts | 245° |
| 2026-04-21 20:41 | 28.43764 | -81.29263 | 98 ft | 23 kts | 180° |
| 2026-04-21 20:41 | 28.43614 | -81.29261 | 98 ft | 15 kts | 180° |
| 2026-04-21 20:41 | 28.43553 | -81.29331 | 98 ft | 15 kts | 265° |
| 2026-04-21 20:42 | 28.43552 | -81.29441 | 96 ft | 14 kts | 270° |
| 2026-04-21 20:42 | 28.43550 | -81.29601 | 98 ft | 23 kts | 268° |
| 2026-04-21 20:42 | 28.43549 | -81.29742 | 95 ft | 17 kts | 269° |
| 2026-04-21 20:42 | 28.43538 | -81.29863 | 96 ft | 14 kts | 235° |
| 2026-04-21 20:43 | 28.43449 | -81.29885 | 95 ft | 12 kts | 181° |
| 2026-04-21 20:43 | 28.43417 | -81.29941 | 95 ft | 9 kts | 280° |
| 2026-04-21 20:43 | 28.43427 | -81.29982 | 95 ft | 0 kts | 284° |
| 2026-04-21 20:43 | 28.43430 | -81.29996 | 96 ft | 4 kts | 285° |
| 2026-04-21 20:44 | 28.43431 | -81.29997 | 96 ft | 0 kts | 285° |
| 2026-04-21 20:44 | 28.43432 | -81.30002 | 96 ft | 0 kts | 285° |
| 2026-04-21 20:44 | 28.43433 | -81.30006 | 95 ft | 0 kts | 284° |